sensor_id;sensor_type;location;lat;lon;timestamp;P1;durP1;ratioP1;P2;durP2;ratioP2
36001;SDS011;22070;50.922;5.430;2022-11-20T00:01:05;23.73;;;11.73;;
36001;SDS011;22070;50.922;5.430;2022-11-20T00:03:35;27.40;;;14.27;;
36001;SDS011;22070;50.922;5.430;2022-11-20T00:06:02;29.98;;;14.82;;
36001;SDS011;22070;50.922;5.430;2022-11-20T00:08:29;29.63;;;15.07;;
36001;SDS011;22070;50.922;5.430;2022-11-20T00:10:55;28.60;;;14.57;;
36001;SDS011;22070;50.922;5.430;2022-11-20T00:13:20;27.92;;;15.25;;
36001;SDS011;22070;50.922;5.430;2022-11-20T00:15:46;27.88;;;15.50;;
36001;SDS011;22070;50.922;5.430;2022-11-20T00:18:12;28.77;;;15.63;;
36001;SDS011;22070;50.922;5.430;2022-11-20T00:20:37;27.42;;;15.27;;
36001;SDS011;22070;50.922;5.430;2022-11-20T00:23:03;27.67;;;15.00;;
36001;SDS011;22070;50.922;5.430;2022-11-20T00:25:28;27.95;;;15.68;;
36001;SDS011;22070;50.922;5.430;2022-11-20T00:27:54;29.08;;;15.88;;
36001;SDS011;22070;50.922;5.430;2022-11-20T00:30:20;28.65;;;15.68;;
36001;SDS011;22070;50.922;5.430;2022-11-20T00:32:45;29.80;;;14.95;;
36001;SDS011;22070;50.922;5.430;2022-11-20T00:35:11;26.40;;;14.65;;
36001;SDS011;22070;50.922;5.430;2022-11-20T00:37:37;30.05;;;15.18;;
36001;SDS011;22070;50.922;5.430;2022-11-20T00:40:02;29.55;;;15.93;;
36001;SDS011;22070;50.922;5.430;2022-11-20T00:42:28;30.17;;;15.85;;
36001;SDS011;22070;50.922;5.430;2022-11-20T00:44:54;26.88;;;15.15;;
36001;SDS011;22070;50.922;5.430;2022-11-20T00:47:19;29.40;;;15.77;;
36001;SDS011;22070;50.922;5.430;2022-11-20T00:49:45;32.35;;;16.25;;
36001;SDS011;22070;50.922;5.430;2022-11-20T00:52:11;25.97;;;15.00;;
36001;SDS011;22070;50.922;5.430;2022-11-20T00:54:37;27.45;;;15.98;;
36001;SDS011;22070;50.922;5.430;2022-11-20T00:57:02;28.10;;;15.75;;
36001;SDS011;22070;50.922;5.430;2022-11-20T00:59:28;28.27;;;15.60;;
36001;SDS011;22070;50.922;5.430;2022-11-20T01:01:53;32.92;;;15.45;;
36001;SDS011;22070;50.922;5.430;2022-11-20T01:04:19;30.33;;;16.60;;
36001;SDS011;22070;50.922;5.430;2022-11-20T01:06:45;27.45;;;15.10;;
36001;SDS011;22070;50.922;5.430;2022-11-20T01:09:11;34.95;;;15.65;;
36001;SDS011;22070;50.922;5.430;2022-11-20T01:11:39;27.13;;;15.23;;
36001;SDS011;22070;50.922;5.430;2022-11-20T01:14:07;30.60;;;15.75;;
36001;SDS011;22070;50.922;5.430;2022-11-20T01:16:38;28.52;;;16.15;;
36001;SDS011;22070;50.922;5.430;2022-11-20T01:19:18;30.92;;;15.93;;
36001;SDS011;22070;50.922;5.430;2022-11-20T01:21:47;29.85;;;16.48;;
36001;SDS011;22070;50.922;5.430;2022-11-20T01:24:16;34.65;;;15.35;;
36001;SDS011;22070;50.922;5.430;2022-11-20T01:26:43;35.30;;;16.77;;
36001;SDS011;22070;50.922;5.430;2022-11-20T01:29:12;31.08;;;16.17;;
36001;SDS011;22070;50.922;5.430;2022-11-20T01:31:39;26.35;;;15.35;;
36001;SDS011;22070;50.922;5.430;2022-11-20T01:34:07;32.78;;;16.08;;
36001;SDS011;22070;50.922;5.430;2022-11-20T01:36:35;34.97;;;19.42;;
36001;SDS011;22070;50.922;5.430;2022-11-20T01:39:03;30.63;;;16.95;;
36001;SDS011;22070;50.922;5.430;2022-11-20T01:41:31;33.97;;;16.48;;
36001;SDS011;22070;50.922;5.430;2022-11-20T01:44:18;29.98;;;15.88;;
36001;SDS011;22070;50.922;5.430;2022-11-20T01:46:58;28.27;;;15.10;;
36001;SDS011;22070;50.922;5.430;2022-11-20T01:49:48;28.92;;;15.13;;
36001;SDS011;22070;50.922;5.430;2022-11-20T01:52:18;29.55;;;15.65;;
36001;SDS011;22070;50.922;5.430;2022-11-20T01:54:49;31.25;;;16.23;;
36001;SDS011;22070;50.922;5.430;2022-11-20T01:57:19;30.08;;;16.42;;
36001;SDS011;22070;50.922;5.430;2022-11-20T01:59:49;31.30;;;15.30;;
36001;SDS011;22070;50.922;5.430;2022-11-20T02:02:20;29.88;;;16.05;;
36001;SDS011;22070;50.922;5.430;2022-11-20T02:04:47;28.42;;;16.08;;
36001;SDS011;22070;50.922;5.430;2022-11-20T02:07:14;31.55;;;16.23;;
36001;SDS011;22070;50.922;5.430;2022-11-20T02:09:41;29.38;;;15.15;;
36001;SDS011;22070;50.922;5.430;2022-11-20T02:12:07;34.50;;;15.80;;
36001;SDS011;22070;50.922;5.430;2022-11-20T02:14:52;34.15;;;15.48;;
36001;SDS011;22070;50.922;5.430;2022-11-20T02:17:18;28.48;;;15.02;;
36001;SDS011;22070;50.922;5.430;2022-11-20T02:19:44;30.38;;;15.80;;
36001;SDS011;22070;50.922;5.430;2022-11-20T02:24:47;27.42;;;14.80;;
36001;SDS011;22070;50.922;5.430;2022-11-20T02:27:15;30.98;;;15.30;;
36001;SDS011;22070;50.922;5.430;2022-11-20T02:29:42;28.90;;;15.13;;
36001;SDS011;22070;50.922;5.430;2022-11-20T02:32:23;30.90;;;15.20;;
36001;SDS011;22070;50.922;5.430;2022-11-20T02:34:56;30.25;;;15.93;;
36001;SDS011;22070;50.922;5.430;2022-11-20T02:37:23;28.45;;;14.80;;
36001;SDS011;22070;50.922;5.430;2022-11-20T02:39:55;30.52;;;15.40;;
36001;SDS011;22070;50.922;5.430;2022-11-20T02:42:21;28.92;;;15.82;;
36001;SDS011;22070;50.922;5.430;2022-11-20T02:44:47;32.40;;;16.20;;
36001;SDS011;22070;50.922;5.430;2022-11-20T02:47:12;29.40;;;16.00;;
36001;SDS011;22070;50.922;5.430;2022-11-20T02:49:38;24.17;;;11.23;;
36001;SDS011;22070;50.922;5.430;2022-11-20T02:52:03;28.58;;;14.77;;
36001;SDS011;22070;50.922;5.430;2022-11-20T02:54:29;26.08;;;13.80;;
36001;SDS011;22070;50.922;5.430;2022-11-20T02:56:55;27.30;;;14.75;;
36001;SDS011;22070;50.922;5.430;2022-11-20T02:59:21;28.52;;;15.02;;
36001;SDS011;22070;50.922;5.430;2022-11-20T03:01:47;27.73;;;15.10;;
36001;SDS011;22070;50.922;5.430;2022-11-20T03:04:12;28.00;;;14.45;;
36001;SDS011;22070;50.922;5.430;2022-11-20T03:06:38;29.38;;;14.60;;
36001;SDS011;22070;50.922;5.430;2022-11-20T03:09:03;28.25;;;14.85;;
36001;SDS011;22070;50.922;5.430;2022-11-20T03:11:29;29.00;;;15.10;;
36001;SDS011;22070;50.922;5.430;2022-11-20T03:13:55;27.75;;;14.60;;
36001;SDS011;22070;50.922;5.430;2022-11-20T03:16:21;25.08;;;13.63;;
36001;SDS011;22070;50.922;5.430;2022-11-20T03:18:47;25.02;;;13.85;;
36001;SDS011;22070;50.922;5.430;2022-11-20T03:21:14;27.38;;;15.18;;
36001;SDS011;22070;50.922;5.430;2022-11-20T03:23:40;26.58;;;15.13;;
36001;SDS011;22070;50.922;5.430;2022-11-20T03:26:07;20.60;;;11.33;;
36001;SDS011;22070;50.922;5.430;2022-11-20T03:28:35;27.42;;;14.88;;
36001;SDS011;22070;50.922;5.430;2022-11-20T03:31:11;27.15;;;15.05;;
36001;SDS011;22070;50.922;5.430;2022-11-20T03:33:39;26.02;;;14.45;;
36001;SDS011;22070;50.922;5.430;2022-11-20T03:36:07;30.17;;;14.15;;
36001;SDS011;22070;50.922;5.430;2022-11-20T03:38:34;24.90;;;13.88;;
36001;SDS011;22070;50.922;5.430;2022-11-20T03:41:02;28.48;;;14.68;;
36001;SDS011;22070;50.922;5.430;2022-11-20T03:43:29;29.08;;;15.30;;
36001;SDS011;22070;50.922;5.430;2022-11-20T03:45:55;21.63;;;11.55;;
36001;SDS011;22070;50.922;5.430;2022-11-20T03:48:21;26.93;;;14.53;;
36001;SDS011;22070;50.922;5.430;2022-11-20T03:50:47;31.48;;;14.95;;
36001;SDS011;22070;50.922;5.430;2022-11-20T03:53:13;27.05;;;14.63;;
36001;SDS011;22070;50.922;5.430;2022-11-20T03:55:39;28.42;;;14.55;;
36001;SDS011;22070;50.922;5.430;2022-11-20T03:58:05;25.80;;;14.63;;
36001;SDS011;22070;50.922;5.430;2022-11-20T04:00:31;29.63;;;14.68;;
36001;SDS011;22070;50.922;5.430;2022-11-20T04:03:00;27.35;;;14.48;;
36001;SDS011;22070;50.922;5.430;2022-11-20T04:05:26;29.05;;;15.35;;
36001;SDS011;22070;50.922;5.430;2022-11-20T04:07:52;29.33;;;15.90;;
36001;SDS011;22070;50.922;5.430;2022-11-20T04:10:17;24.08;;;13.55;;
36001;SDS011;22070;50.922;5.430;2022-11-20T04:12:43;26.23;;;13.75;;
36001;SDS011;22070;50.922;5.430;2022-11-20T04:15:09;25.05;;;13.98;;
36001;SDS011;22070;50.922;5.430;2022-11-20T04:17:35;28.50;;;14.02;;
36001;SDS011;22070;50.922;5.430;2022-11-20T04:20:00;25.35;;;13.82;;
36001;SDS011;22070;50.922;5.430;2022-11-20T04:22:27;18.60;;;10.38;;
36001;SDS011;22070;50.922;5.430;2022-11-20T04:24:52;25.85;;;13.68;;
36001;SDS011;22070;50.922;5.430;2022-11-20T04:27:18;26.27;;;14.93;;
36001;SDS011;22070;50.922;5.430;2022-11-20T04:29:43;27.65;;;14.48;;
36001;SDS011;22070;50.922;5.430;2022-11-20T04:32:09;26.75;;;14.27;;
36001;SDS011;22070;50.922;5.430;2022-11-20T04:34:35;29.77;;;14.93;;
36001;SDS011;22070;50.922;5.430;2022-11-20T04:37:00;26.55;;;13.93;;
36001;SDS011;22070;50.922;5.430;2022-11-20T04:39:26;23.33;;;13.63;;
36001;SDS011;22070;50.922;5.430;2022-11-20T04:41:52;25.27;;;14.75;;
36001;SDS011;22070;50.922;5.430;2022-11-20T04:44:37;26.73;;;14.90;;
36001;SDS011;22070;50.922;5.430;2022-11-20T04:47:03;36.83;;;14.93;;
36001;SDS011;22070;50.922;5.430;2022-11-20T04:49:29;28.98;;;14.10;;
36001;SDS011;22070;50.922;5.430;2022-11-20T04:51:56;26.92;;;15.63;;
36001;SDS011;22070;50.922;5.430;2022-11-20T04:54:22;30.30;;;15.02;;
36001;SDS011;22070;50.922;5.430;2022-11-20T04:56:48;29.38;;;14.20;;
36001;SDS011;22070;50.922;5.430;2022-11-20T04:59:13;29.55;;;14.88;;
36001;SDS011;22070;50.922;5.430;2022-11-20T05:01:39;36.80;;;14.93;;
36001;SDS011;22070;50.922;5.430;2022-11-20T05:04:05;35.78;;;16.88;;
36001;SDS011;22070;50.922;5.430;2022-11-20T05:06:31;24.38;;;11.63;;
36001;SDS011;22070;50.922;5.430;2022-11-20T05:08:57;37.22;;;16.90;;
36001;SDS011;22070;50.922;5.430;2022-11-20T05:11:23;34.97;;;16.67;;
36001;SDS011;22070;50.922;5.430;2022-11-20T05:13:49;44.65;;;17.58;;
36001;SDS011;22070;50.922;5.430;2022-11-20T05:18:48;42.97;;;17.13;;
36001;SDS011;22070;50.922;5.430;2022-11-20T05:23:41;46.70;;;17.10;;
36001;SDS011;22070;50.922;5.430;2022-11-20T05:26:08;48.88;;;18.02;;
36001;SDS011;22070;50.922;5.430;2022-11-20T05:28:41;53.65;;;19.52;;
36001;SDS011;22070;50.922;5.430;2022-11-20T05:31:07;45.85;;;18.88;;
36001;SDS011;22070;50.922;5.430;2022-11-20T05:33:34;49.13;;;19.23;;
36001;SDS011;22070;50.922;5.430;2022-11-20T05:36:01;47.97;;;19.83;;
36001;SDS011;22070;50.922;5.430;2022-11-20T05:38:28;49.72;;;18.67;;
36001;SDS011;22070;50.922;5.430;2022-11-20T05:40:54;51.00;;;18.27;;
36001;SDS011;22070;50.922;5.430;2022-11-20T05:43:19;45.38;;;19.77;;
36001;SDS011;22070;50.922;5.430;2022-11-20T05:45:53;40.85;;;19.73;;
36001;SDS011;22070;50.922;5.430;2022-11-20T05:48:19;55.47;;;19.30;;
36001;SDS011;22070;50.922;5.430;2022-11-20T05:50:45;50.93;;;18.87;;
36001;SDS011;22070;50.922;5.430;2022-11-20T05:53:10;46.55;;;18.85;;
36001;SDS011;22070;50.922;5.430;2022-11-20T05:55:36;49.08;;;20.13;;
36001;SDS011;22070;50.922;5.430;2022-11-20T05:58:02;52.97;;;19.50;;
36001;SDS011;22070;50.922;5.430;2022-11-20T06:00:27;43.88;;;18.42;;
36001;SDS011;22070;50.922;5.430;2022-11-20T06:02:53;46.97;;;19.13;;
36001;SDS011;22070;50.922;5.430;2022-11-20T06:05:19;43.83;;;18.88;;
36001;SDS011;22070;50.922;5.430;2022-11-20T06:07:44;41.25;;;18.92;;
36001;SDS011;22070;50.922;5.430;2022-11-20T06:10:10;42.03;;;18.05;;
36001;SDS011;22070;50.922;5.430;2022-11-20T06:12:36;48.33;;;19.95;;
36001;SDS011;22070;50.922;5.430;2022-11-20T06:15:01;41.42;;;18.63;;
36001;SDS011;22070;50.922;5.430;2022-11-20T06:17:28;44.92;;;17.50;;
36001;SDS011;22070;50.922;5.430;2022-11-20T06:19:54;44.15;;;18.02;;
36001;SDS011;22070;50.922;5.430;2022-11-20T06:22:20;41.00;;;18.40;;
36001;SDS011;22070;50.922;5.430;2022-11-20T06:24:45;41.63;;;18.48;;
36001;SDS011;22070;50.922;5.430;2022-11-20T06:27:11;43.90;;;18.92;;
36001;SDS011;22070;50.922;5.430;2022-11-20T06:29:36;39.03;;;17.20;;
36001;SDS011;22070;50.922;5.430;2022-11-20T06:32:02;40.58;;;17.77;;
36001;SDS011;22070;50.922;5.430;2022-11-20T06:34:28;46.78;;;19.05;;
36001;SDS011;22070;50.922;5.430;2022-11-20T06:36:53;46.58;;;17.55;;
36001;SDS011;22070;50.922;5.430;2022-11-20T06:39:19;41.78;;;18.13;;
36001;SDS011;22070;50.922;5.430;2022-11-20T06:41:45;41.42;;;18.25;;
36001;SDS011;22070;50.922;5.430;2022-11-20T06:44:10;41.92;;;18.70;;
36001;SDS011;22070;50.922;5.430;2022-11-20T06:46:36;41.58;;;18.63;;
36001;SDS011;22070;50.922;5.430;2022-11-20T06:49:01;44.40;;;18.33;;
36001;SDS011;22070;50.922;5.430;2022-11-20T06:51:27;37.08;;;17.95;;
36001;SDS011;22070;50.922;5.430;2022-11-20T06:53:53;45.85;;;20.10;;
36001;SDS011;22070;50.922;5.430;2022-11-20T06:56:19;45.78;;;19.40;;
36001;SDS011;22070;50.922;5.430;2022-11-20T06:58:44;47.53;;;19.67;;
36001;SDS011;22070;50.922;5.430;2022-11-20T07:01:11;49.78;;;19.80;;
36001;SDS011;22070;50.922;5.430;2022-11-20T07:03:38;41.80;;;17.85;;
36001;SDS011;22070;50.922;5.430;2022-11-20T07:06:05;44.80;;;19.17;;
36001;SDS011;22070;50.922;5.430;2022-11-20T07:08:31;44.35;;;18.85;;
36001;SDS011;22070;50.922;5.430;2022-11-20T07:10:58;42.65;;;18.10;;
36001;SDS011;22070;50.922;5.430;2022-11-20T07:13:25;43.00;;;18.50;;
36001;SDS011;22070;50.922;5.430;2022-11-20T07:15:52;42.20;;;18.90;;
36001;SDS011;22070;50.922;5.430;2022-11-20T07:18:17;42.85;;;18.33;;
36001;SDS011;22070;50.922;5.430;2022-11-20T07:20:43;39.75;;;18.00;;
36001;SDS011;22070;50.922;5.430;2022-11-20T07:23:09;43.03;;;20.05;;
36001;SDS011;22070;50.922;5.430;2022-11-20T07:25:35;33.25;;;14.10;;
36001;SDS011;22070;50.922;5.430;2022-11-20T07:28:00;50.45;;;19.42;;
36001;SDS011;22070;50.922;5.430;2022-11-20T07:30:29;47.63;;;19.77;;
36001;SDS011;22070;50.922;5.430;2022-11-20T07:32:56;42.65;;;18.63;;
36001;SDS011;22070;50.922;5.430;2022-11-20T07:35:22;43.30;;;19.70;;
36001;SDS011;22070;50.922;5.430;2022-11-20T07:37:51;44.45;;;19.77;;
36001;SDS011;22070;50.922;5.430;2022-11-20T07:40:18;42.08;;;18.27;;
36001;SDS011;22070;50.922;5.430;2022-11-20T07:42:47;43.05;;;18.92;;
36001;SDS011;22070;50.922;5.430;2022-11-20T07:45:17;42.08;;;18.30;;
36001;SDS011;22070;50.922;5.430;2022-11-20T07:47:46;39.85;;;18.50;;
36001;SDS011;22070;50.922;5.430;2022-11-20T07:50:12;44.53;;;18.65;;
36001;SDS011;22070;50.922;5.430;2022-11-20T07:52:38;44.95;;;19.23;;
36001;SDS011;22070;50.922;5.430;2022-11-20T07:55:04;37.72;;;18.42;;
36001;SDS011;22070;50.922;5.430;2022-11-20T07:57:30;45.60;;;19.35;;
36001;SDS011;22070;50.922;5.430;2022-11-20T07:59:56;46.28;;;20.38;;
36001;SDS011;22070;50.922;5.430;2022-11-20T08:02:21;31.45;;;13.68;;
36001;SDS011;22070;50.922;5.430;2022-11-20T08:04:47;45.53;;;20.48;;
36001;SDS011;22070;50.922;5.430;2022-11-20T08:07:13;48.85;;;20.73;;
36001;SDS011;22070;50.922;5.430;2022-11-20T08:09:38;46.78;;;20.08;;
36001;SDS011;22070;50.922;5.430;2022-11-20T08:12:04;49.90;;;20.73;;
36001;SDS011;22070;50.922;5.430;2022-11-20T08:14:48;47.95;;;21.38;;
36001;SDS011;22070;50.922;5.430;2022-11-20T08:17:14;45.38;;;20.45;;
36001;SDS011;22070;50.922;5.430;2022-11-20T08:19:39;46.88;;;20.30;;
36001;SDS011;22070;50.922;5.430;2022-11-20T08:22:05;48.53;;;20.70;;
36001;SDS011;22070;50.922;5.430;2022-11-20T08:24:31;43.42;;;19.80;;
36001;SDS011;22070;50.922;5.430;2022-11-20T08:26:57;53.00;;;20.45;;
36001;SDS011;22070;50.922;5.430;2022-11-20T08:29:24;48.45;;;20.95;;
36001;SDS011;22070;50.922;5.430;2022-11-20T08:31:51;50.15;;;22.10;;
36001;SDS011;22070;50.922;5.430;2022-11-20T08:34:16;47.45;;;21.20;;
36001;SDS011;22070;50.922;5.430;2022-11-20T08:36:42;51.67;;;21.48;;
36001;SDS011;22070;50.922;5.430;2022-11-20T08:39:07;47.58;;;20.25;;
36001;SDS011;22070;50.922;5.430;2022-11-20T08:41:36;56.28;;;21.65;;
36001;SDS011;22070;50.922;5.430;2022-11-20T08:44:03;51.28;;;20.38;;
36001;SDS011;22070;50.922;5.430;2022-11-20T08:49:01;44.63;;;20.52;;
36001;SDS011;22070;50.922;5.430;2022-11-20T08:51:27;47.28;;;20.90;;
36001;SDS011;22070;50.922;5.430;2022-11-20T08:53:53;47.35;;;20.73;;
36001;SDS011;22070;50.922;5.430;2022-11-20T08:56:19;48.78;;;20.60;;
36001;SDS011;22070;50.922;5.430;2022-11-20T08:58:44;47.05;;;20.70;;
36001;SDS011;22070;50.922;5.430;2022-11-20T09:01:10;50.05;;;21.15;;
36001;SDS011;22070;50.922;5.430;2022-11-20T09:03:36;47.85;;;21.00;;
36001;SDS011;22070;50.922;5.430;2022-11-20T09:06:03;45.40;;;20.45;;
36001;SDS011;22070;50.922;5.430;2022-11-20T09:08:30;46.15;;;20.88;;
36001;SDS011;22070;50.922;5.430;2022-11-20T09:10:56;51.40;;;21.10;;
36001;SDS011;22070;50.922;5.430;2022-11-20T09:13:23;46.50;;;20.70;;
36001;SDS011;22070;50.922;5.430;2022-11-20T09:15:53;45.95;;;20.05;;
36001;SDS011;22070;50.922;5.430;2022-11-20T09:18:21;48.53;;;21.13;;
36001;SDS011;22070;50.922;5.430;2022-11-20T09:20:46;49.28;;;19.92;;
36001;SDS011;22070;50.922;5.430;2022-11-20T09:23:12;45.35;;;19.67;;
36001;SDS011;22070;50.922;5.430;2022-11-20T09:25:38;46.55;;;19.85;;
36001;SDS011;22070;50.922;5.430;2022-11-20T09:28:04;43.30;;;19.45;;
36001;SDS011;22070;50.922;5.430;2022-11-20T09:30:30;47.97;;;19.77;;
36001;SDS011;22070;50.922;5.430;2022-11-20T09:32:55;42.35;;;19.23;;
36001;SDS011;22070;50.922;5.430;2022-11-20T09:35:21;44.97;;;18.85;;
36001;SDS011;22070;50.922;5.430;2022-11-20T09:37:47;43.95;;;19.27;;
36001;SDS011;22070;50.922;5.430;2022-11-20T09:40:26;46.88;;;19.85;;
36001;SDS011;22070;50.922;5.430;2022-11-20T09:42:59;44.42;;;18.85;;
36001;SDS011;22070;50.922;5.430;2022-11-20T09:45:37;44.63;;;18.45;;
36001;SDS011;22070;50.922;5.430;2022-11-20T09:56:55;41.92;;;18.13;;
36001;SDS011;22070;50.922;5.430;2022-11-20T09:59:27;49.50;;;18.85;;
36001;SDS011;22070;50.922;5.430;2022-11-20T10:05:23;48.70;;;18.60;;
36001;SDS011;22070;50.922;5.430;2022-11-20T10:10:29;50.00;;;20.10;;
36001;SDS011;22070;50.922;5.430;2022-11-20T10:16:02;50.63;;;19.42;;
36001;SDS011;22070;50.922;5.430;2022-11-20T10:21:15;51.38;;;19.95;;
36001;SDS011;22070;50.922;5.430;2022-11-20T10:29:26;53.25;;;19.88;;
36001;SDS011;22070;50.922;5.430;2022-11-20T10:32:02;54.08;;;21.58;;
36001;SDS011;22070;50.922;5.430;2022-11-20T10:34:50;57.75;;;20.90;;
36001;SDS011;22070;50.922;5.430;2022-11-20T10:37:26;49.20;;;20.58;;
36001;SDS011;22070;50.922;5.430;2022-11-20T10:39:58;70.55;;;21.92;;
36001;SDS011;22070;50.922;5.430;2022-11-20T10:42:47;57.40;;;19.13;;
36001;SDS011;22070;50.922;5.430;2022-11-20T10:45:35;58.85;;;21.55;;
36001;SDS011;22070;50.922;5.430;2022-11-20T10:50:41;54.42;;;21.00;;
36001;SDS011;22070;50.922;5.430;2022-11-20T10:53:46;60.35;;;20.50;;
36001;SDS011;22070;50.922;5.430;2022-11-20T10:59:04;62.20;;;21.55;;
36001;SDS011;22070;50.922;5.430;2022-11-20T11:01:43;53.15;;;20.58;;
36001;SDS011;22070;50.922;5.430;2022-11-20T11:07:12;59.00;;;20.98;;
36001;SDS011;22070;50.922;5.430;2022-11-20T11:10:11;49.88;;;20.02;;
36001;SDS011;22070;50.922;5.430;2022-11-20T11:12:57;56.45;;;20.58;;
36001;SDS011;22070;50.922;5.430;2022-11-20T11:15:38;55.47;;;20.85;;
36001;SDS011;22070;50.922;5.430;2022-11-20T11:18:08;54.70;;;19.85;;
36001;SDS011;22070;50.922;5.430;2022-11-20T11:20:34;60.17;;;20.65;;
36001;SDS011;22070;50.922;5.430;2022-11-20T11:23:01;57.38;;;21.00;;
36001;SDS011;22070;50.922;5.430;2022-11-20T11:25:30;51.65;;;19.67;;
36001;SDS011;22070;50.922;5.430;2022-11-20T11:28:04;51.60;;;19.65;;
36001;SDS011;22070;50.922;5.430;2022-11-20T11:30:45;55.10;;;21.42;;
36001;SDS011;22070;50.922;5.430;2022-11-20T11:33:18;48.35;;;19.65;;
36001;SDS011;22070;50.922;5.430;2022-11-20T11:35:49;48.35;;;19.50;;
36001;SDS011;22070;50.922;5.430;2022-11-20T11:41:06;48.45;;;19.33;;
36001;SDS011;22070;50.922;5.430;2022-11-20T11:43:35;50.30;;;19.98;;
36001;SDS011;22070;50.922;5.430;2022-11-20T11:54:22;53.30;;;21.00;;
36001;SDS011;22070;50.922;5.430;2022-11-20T11:56:50;55.17;;;20.88;;
36001;SDS011;22070;50.922;5.430;2022-11-20T11:59:22;55.37;;;20.70;;
36001;SDS011;22070;50.922;5.430;2022-11-20T12:02:11;57.20;;;19.95;;
36001;SDS011;22070;50.922;5.430;2022-11-20T12:04:56;50.70;;;20.65;;
36001;SDS011;22070;50.922;5.430;2022-11-20T12:10:15;51.13;;;19.83;;
36001;SDS011;22070;50.922;5.430;2022-11-20T12:12:46;45.92;;;19.25;;
36001;SDS011;22070;50.922;5.430;2022-11-20T12:15:21;49.28;;;19.10;;
36001;SDS011;22070;50.922;5.430;2022-11-20T12:17:53;44.78;;;18.88;;
36001;SDS011;22070;50.922;5.430;2022-11-20T12:20:19;47.80;;;19.70;;
36001;SDS011;22070;50.922;5.430;2022-11-20T12:22:53;41.55;;;18.17;;
36001;SDS011;22070;50.922;5.430;2022-11-20T12:25:34;44.33;;;18.13;;
36001;SDS011;22070;50.922;5.430;2022-11-20T12:31:13;41.33;;;17.10;;
36001;SDS011;22070;50.922;5.430;2022-11-20T12:39:08;20.23;;;8.50;;
36001;SDS011;22070;50.922;5.430;2022-11-20T12:41:43;15.10;;;6.90;;
36001;SDS011;22070;50.922;5.430;2022-11-20T13:01:34;7.78;;;3.03;;
36001;SDS011;22070;50.922;5.430;2022-11-20T13:07:05;5.68;;;2.00;;
36001;SDS011;22070;50.922;5.430;2022-11-20T13:09:34;8.25;;;2.33;;
36001;SDS011;22070;50.922;5.430;2022-11-20T13:12:08;8.00;;;1.90;;
36001;SDS011;22070;50.922;5.430;2022-11-20T13:14:45;3.40;;;1.65;;
36001;SDS011;22070;50.922;5.430;2022-11-20T13:17:32;4.57;;;1.83;;
36001;SDS011;22070;50.922;5.430;2022-11-20T13:20:01;3.95;;;1.60;;
36001;SDS011;22070;50.922;5.430;2022-11-20T13:22:42;7.70;;;1.60;;
36001;SDS011;22070;50.922;5.430;2022-11-20T13:25:32;4.57;;;1.27;;
36001;SDS011;22070;50.922;5.430;2022-11-20T13:27:57;5.22;;;1.55;;
36001;SDS011;22070;50.922;5.430;2022-11-20T13:30:26;5.53;;;2.42;;
36001;SDS011;22070;50.922;5.430;2022-11-20T13:32:56;9.13;;;2.35;;
36001;SDS011;22070;50.922;5.430;2022-11-20T13:35:33;5.55;;;1.92;;
36001;SDS011;22070;50.922;5.430;2022-11-20T13:38:09;5.70;;;1.60;;
36001;SDS011;22070;50.922;5.430;2022-11-20T13:40:50;3.13;;;1.35;;
36001;SDS011;22070;50.922;5.430;2022-11-20T13:43:19;4.15;;;1.35;;
36001;SDS011;22070;50.922;5.430;2022-11-20T13:45:55;7.28;;;1.50;;
36001;SDS011;22070;50.922;5.430;2022-11-20T13:48:26;7.88;;;1.55;;
36001;SDS011;22070;50.922;5.430;2022-11-20T14:01:33;3.72;;;1.33;;
36001;SDS011;22070;50.922;5.430;2022-11-20T14:03:59;6.18;;;1.33;;
36001;SDS011;22070;50.922;5.430;2022-11-20T14:06:42;3.50;;;1.33;;
36001;SDS011;22070;50.922;5.430;2022-11-20T14:09:11;7.22;;;1.45;;
36001;SDS011;22070;50.922;5.430;2022-11-20T14:11:49;11.27;;;2.00;;
36001;SDS011;22070;50.922;5.430;2022-11-20T14:14:18;4.82;;;1.63;;
36001;SDS011;22070;50.922;5.430;2022-11-20T14:16:46;5.78;;;1.90;;
36001;SDS011;22070;50.922;5.430;2022-11-20T14:21:48;5.78;;;1.90;;
36001;SDS011;22070;50.922;5.430;2022-11-20T14:24:18;8.60;;;2.33;;
36001;SDS011;22070;50.922;5.430;2022-11-20T14:26:48;5.60;;;2.10;;
36001;SDS011;22070;50.922;5.430;2022-11-20T14:29:16;5.88;;;2.05;;
36001;SDS011;22070;50.922;5.430;2022-11-20T14:31:47;6.10;;;2.35;;
36001;SDS011;22070;50.922;5.430;2022-11-20T14:34:22;7.43;;;2.22;;
36001;SDS011;22070;50.922;5.430;2022-11-20T14:36:51;5.88;;;2.30;;
36001;SDS011;22070;50.922;5.430;2022-11-20T14:39:21;3.72;;;2.20;;
36001;SDS011;22070;50.922;5.430;2022-11-20T14:41:56;4.43;;;2.42;;
36001;SDS011;22070;50.922;5.430;2022-11-20T14:44:25;7.05;;;2.47;;
36001;SDS011;22070;50.922;5.430;2022-11-20T14:46:54;6.95;;;2.50;;
36001;SDS011;22070;50.922;5.430;2022-11-20T14:49:20;9.20;;;2.80;;
36001;SDS011;22070;50.922;5.430;2022-11-20T14:51:46;7.00;;;2.90;;
36001;SDS011;22070;50.922;5.430;2022-11-20T14:54:22;7.63;;;2.22;;
36001;SDS011;22070;50.922;5.430;2022-11-20T14:56:57;5.32;;;2.42;;
36001;SDS011;22070;50.922;5.430;2022-11-20T14:59:32;6.00;;;2.35;;
36001;SDS011;22070;50.922;5.430;2022-11-20T15:06:53;8.33;;;2.50;;
36001;SDS011;22070;50.922;5.430;2022-11-20T15:09:20;6.57;;;2.47;;
36001;SDS011;22070;50.922;5.430;2022-11-20T15:11:57;8.27;;;3.22;;
36001;SDS011;22070;50.922;5.430;2022-11-20T15:14:25;7.20;;;2.75;;
36001;SDS011;22070;50.922;5.430;2022-11-20T15:16:53;7.75;;;3.08;;
36001;SDS011;22070;50.922;5.430;2022-11-20T15:19:20;8.63;;;3.58;;
36001;SDS011;22070;50.922;5.430;2022-11-20T15:21:47;10.30;;;2.50;;
36001;SDS011;22070;50.922;5.430;2022-11-20T15:24:14;8.33;;;3.03;;
36001;SDS011;22070;50.922;5.430;2022-11-20T15:26:40;7.10;;;2.85;;
36001;SDS011;22070;50.922;5.430;2022-11-20T15:29:13;6.95;;;3.05;;
36001;SDS011;22070;50.922;5.430;2022-11-20T15:31:43;11.85;;;3.15;;
36001;SDS011;22070;50.922;5.430;2022-11-20T15:34:16;5.13;;;2.58;;
36001;SDS011;22070;50.922;5.430;2022-11-20T15:36:42;7.60;;;2.92;;
36001;SDS011;22070;50.922;5.430;2022-11-20T15:39:08;8.15;;;2.97;;
36001;SDS011;22070;50.922;5.430;2022-11-20T15:41:34;8.13;;;3.15;;
36001;SDS011;22070;50.922;5.430;2022-11-20T15:44:01;9.20;;;2.95;;
36001;SDS011;22070;50.922;5.430;2022-11-20T15:46:28;6.70;;;2.67;;
36001;SDS011;22070;50.922;5.430;2022-11-20T15:48:58;5.28;;;2.80;;
36001;SDS011;22070;50.922;5.430;2022-11-20T15:51:43;4.75;;;2.60;;
36001;SDS011;22070;50.922;5.430;2022-11-20T15:54:15;6.38;;;2.78;;
36001;SDS011;22070;50.922;5.430;2022-11-20T15:56:45;4.32;;;2.38;;
36001;SDS011;22070;50.922;5.430;2022-11-20T15:59:14;4.78;;;3.00;;
36001;SDS011;22070;50.922;5.430;2022-11-20T16:01:40;4.50;;;2.47;;
36001;SDS011;22070;50.922;5.430;2022-11-20T16:04:10;3.20;;;2.33;;
36001;SDS011;22070;50.922;5.430;2022-11-20T16:06:40;5.40;;;3.40;;
36001;SDS011;22070;50.922;5.430;2022-11-20T16:09:06;8.27;;;4.85;;
36001;SDS011;22070;50.922;5.430;2022-11-20T16:11:32;7.28;;;2.97;;
36001;SDS011;22070;50.922;5.430;2022-11-20T16:13:58;3.47;;;2.38;;
36001;SDS011;22070;50.922;5.430;2022-11-20T16:16:41;4.00;;;2.50;;
36001;SDS011;22070;50.922;5.430;2022-11-20T16:19:14;2.75;;;2.10;;
36001;SDS011;22070;50.922;5.430;2022-11-20T16:21:40;1.98;;;1.75;;